• Join FlightAware (Why Join?)
  • Login
  • US Flag 
02:02AM EDT


 

Airport Tracker/Info


-or-


 

Live Flight TrackerFlight Track Log ✈ ASQ4577 ✈ 09-Jul-2013 ✈ KCLE - KALB

Flight Track Log - Related Links

Times and Time Zones

All times are in EDT time to prevent confusion due to time zone crossing. See the ASQ4577 flight status page for this flight to view local times or setup timezone preferences in your user account.

Time Position Orientation Groundspeed Altitude Reporting Facility
EDT Latitude Longitude Course Direction KTS MPH feet Rate Location/Type
07:23PM 41.3961 -81.8786 75° East 152 175 1,700  Level Cleveland Center
07:25PM 41.6451 -81.6050 37° Northeast  Level FlightAware Approximate
07:25PM 41.4539 -81.9269 328° Northwest 221 254 5,500  Level Cleveland Center
07:26PM 41.7275 -81.5225 37° Northeast  Level FlightAware Approximate
07:26PM 41.5169 -81.8672 35° Northeast 239 275 8,500  Level Cleveland Center
07:27PM 41.8100 -81.4401 37° Northeast  Level FlightAware Approximate
07:27PM 41.5783 -81.7878 44° Northeast 272 313 10,600  Level Cleveland Center
07:28PM 41.8460 -81.3200 75° East  Level FlightAware Approximate
07:28PM 41.6503 -81.6836 47° Northeast 308 354 11,900  Level Cleveland Center
07:29PM 41.7222 -81.5819 47° Northeast 355 409 13,700 1,860 Climbing Cleveland Center
07:30PM 41.7958 -81.4800 46° Northeast 375 432 15,700 2,040 Climbing Cleveland Center
07:31PM 41.8489 -81.3553 60° Northeast 375 432 17,800 1,800 Climbing Cleveland Center
07:32PM 41.8706 -81.2161 78° East 365 420 19,400 1,320 Climbing Cleveland Center
07:33PM 41.8922 -81.0714 79° East 385 443 20,500 1,080 Climbing Cleveland Center
07:34PM 41.9136 -80.9208 79° East 402 463 21,600 900 Climbing Cleveland Center
07:35PM 41.9347 -80.7814 78° East 413 475 22,400 900 Climbing Cleveland Center
07:36PM 41.9578 -80.6278 79° East 413 475 23,500 1,020 Climbing Cleveland Center
07:37PM 41.9808 -80.4714 79° East 413 475 24,500 1,020 Climbing Cleveland Center
07:38PM 42.0033 -80.3150 79° East 419 482 25,600 1,020 Climbing Cleveland Center
07:39PM 42.0281 -80.1528 78° East 435 501 26,600 960 Climbing Cleveland Center
07:40PM 42.0503 -79.9903 80° East 435 501 27,600 1,260 Climbing Cleveland Center
07:41PM 42.0722 -79.8336 79° East 435 501 29,200 1,560 Climbing Cleveland Center
07:42PM 42.0939 -79.6822 79° East 424 488 30,800 900 Climbing Cleveland Center
07:43PM 42.1175 -79.5028 80° East 425 489 31,000 60 Climbing Cleveland Center
07:44PM 42.1408 -79.3342 79° East 439 505 31,000  Level Cleveland Center
07:45PM 42.1639 -79.1631 80° East 451 519 31,000  Level Cleveland Center
07:46PM 42.1867 -78.9944 80° East 456 525 31,000  Level Cleveland Center
07:47PM 42.2114 -78.8228 79° East 456 525 31,000  Level Cleveland Center
07:48PM 42.2336 -78.6539 80° East 456 525 31,000  Level Cleveland Center
07:49PM 42.2536 -78.4819 81° East 456 525 31,000  Level Cleveland Center
07:50PM 42.2733 -78.3131 81° East 456 525 31,000  Level Cleveland Center
07:51PM 42.2947 -78.1467 80° East 456 525 31,000 -180 Level Cleveland Center
07:52PM 42.3161 -77.9772 80° East 451 519 30,700 -660 Descending Cleveland Center
07:53PM 42.3356 -77.8303 80° East 446 513 29,700 -900 Descending Cleveland Center
07:54PM 42.3544 -77.6667 81° East 446 513 29,000 -360 Descending Cleveland Center
07:55PM 42.3733 -77.5056 81° East 446 513 29,000 -240 Level Cleveland Center
07:56PM 42.3919 -77.3472 81° East 434 499 28,600 -780 Descending Cleveland Center
07:57PM 42.4281 -77.0428 81° East 445 512 27,000 -600 Descending Boston Center
07:58PM 42.4475 -76.8694 81° East 457 526 27,000  Level Boston Center
07:59PM 42.4664 -76.6992 81° East 462 532 27,000  Level Boston Center
08:00PM 42.4875 -76.5231 81° East 462 532 27,000  Level Boston Center
08:01PM 42.5431 -76.3689 64° Northeast 456 525 27,000 -300 Level Boston Center
08:02PM 42.5958 -76.2256 63° Northeast 465 535 26,500 -780 Descending Boston Center
08:03PM 42.6489 -76.0706 65° Northeast 465 535 25,500 -1,080 Descending Boston Center
08:04PM 42.7033 -75.9239 63° Northeast 448 516 24,400 -1,620 Descending Boston Center
08:05PM 42.7497 -75.7683 68° East 437 503 22,300 -2,100 Descending Boston Center
08:06PM 42.7567 -75.6017 87° East 432 497 20,300 -2,100 Descending Boston Center
08:07PM 42.7567 -75.4461 90° East 426 490 18,200 -2,040 Descending Boston Center
08:08PM 42.7564 -75.2933 90° East 404 465 16,300 -1,560 Descending Boston Center
08:09PM 42.7558 -75.1464 90° East 399 459 14,800 -1,500 Descending Boston Center
08:10PM 42.7567 -75.0219 89° East 398 458 13,800 -1,740 Descending Boston Center
08:10PM 42.7558 -74.9681 91° East 394 453 13,100 -1,380 Descending Boston Center
08:11PM 42.7558 -74.8719 90° East 383 441 12,300 -1,140 Descending Boston Center
08:12PM 42.7564 -74.7447 90° East 316 364 11,300 -600 Descending Boston Center
08:13PM 42.7536 -74.5692 91° East 323 372 11,000 -120 Descending Boston Center
08:14PM 42.7531 -74.4789 90° East 330 380 11,100 -420 Climbing Boston Center
08:15PM 42.7822 -74.3667 70° East 304 350 10,300 -1,440 Descending Boston Center
08:16PM 42.8089 -74.2628 71° East 291 335 8,300 -1,860 Descending Boston Center
08:17PM 42.8356 -74.1586 71° East 289 333 6,600 -1,680 Descending Boston Center
08:18PM 42.8619 -74.0631 69° East 268 308 5,000 -1,560 Descending Boston Center
08:19PM 42.8819 -73.9644 74° East 259 298 3,500 -1,140 Descending Boston Center
08:20PM 42.8867 -73.9333 78° East 256 295 3,200 -780 Descending Boston Center
08:21PM 42.8817 -73.8342 94° East 212 244 2,300 -660 Descending Boston Center
08:22PM 42.8464 -73.8106 154° Southeast 169 194 1,900 7,800 Descending Boston Center
08:23PM 42.8244 -73.7339 111° Southeast 169 194 18,000 16,080 Climbing Boston Center